Foymount, Canada
Current Conditions -  °F | °C
As of 2:05 PM on Tuesday 21 Oct 2014 (Local Time) from CYWA Reporting Station
Overcast Overcast  
Wind Chill: 42°   Ceiling: 2200
Heat Index: 45°   Visibility: 9mi
Dew Point: 34°   Wind: 5mph
Humidity: 66%   Direction: 350°N
Pressure: 30.07"   Gusts: NA
Location:  45.45°N, 77.32°W
Report Text: CYWA 211805Z AUTO 35004KT 330V030 9SM BKN022 OVC031 OVC051 07/01 A3007
Loading
Personal Weather Stations






























Interactive Weather Map
Tropical Storm Tracking
New forecast layout! Learn more

10-Day Weather Forecast

Advertisements
Track Severe Weather on mobile